Tiempo atmosférico en la estación meteorológica de Jerez de la Frontera Aeropuerto, Cádiz (27 m.)



Fecha
DESCASC
Temp. máxima en grados centígrados (hora)
DESCASC
Temp. mínima en grados centígrados (hora)
DESCASC
Temp. media en grados centígrados
DESCASC
Racha de viento máxima en m/sg (hora)
DESCASC
Velocidad máxima media en intervalos de 10 minutos(hora)
DESCASC
Precipitaciones diarias en mm
DESCASC
Precipitaciones de 00:00 a 06:00 en mm
DESCASC
Precipitaciones de 06:00 a 12:00 en mm
DESCASC
Precipitaciones de 12:00 a 18:00 en mm
DESCASC
Precipitaciones de 18:00 a 24:00 en mm
DESCASC
28-12-2020 15.2 (11:40) 1.7 (00:00) 8.4 13.33 (11:30) 8.89 (12:10) -- 0 -- 1 0
30-12-2020 -- (--) -- (--) -- -- (--) -- (--) -- 0 0 0 --
31-12-2020 -- (--) -- (--) -- -- (--) -- (--) -- -- -- 0 0.2
24-12-2020 17.5 (16:00) 7.6 (00:00) 12.5 5 (13:00) 3.33 (13:00) 0 0 0 0 0
15-01-2021 13.4 (16:00) -1.2 (-00:0) 6.1 6.67 (14:00) 4.72 (17:00) 0 0 0 0 0
14-01-2021 13.2 (15:50) -1.8 (08:50) 5.7 6.67 (15:50) 4.44 (15:50) 0 0 0 0 0
13-01-2021 12.5 (15:00) -2.1 (-00:0) 5.2 7.78 (14:20) 5.56 (14:00) 0 0 0 0 0
12-01-2021 12.3 (16:00) -1.8 (-00:0) 5.3 6.11 (14:00) 4.72 (14:10) 0 0 0 0 0
11-01-2021 11 (15:10) -0.2 (00:00) 5.4 7.22 (11:40) 5 (16:20) 0 0 0 0 0
10-01-2021 8.3 (15:10) 2.7 (02:10) 5.5 5 (20:30) 3.33 (06:30) 0 0 0 0 0
16-01-2021 16.2 (16:30) -1.1 (-00:0) 7.6 12.5 (16:30) 8.61 (16:20) 0 0 0 0 0
17-01-2021 16.6 (17:00) -0.9 (-00:0) 7.9 5 (14:30) 3.33 (14:40) 0 0 0 0 0
18-01-2021 16.8 (16:20) 0.2 (00:00) 8.5 6.11 (15:40) 3.61 (17:40) 0 0 0 0 0
19-01-2021 17.4 (15:50) 1.6 (00:00) 9.5 6.67 (13:00) 4.72 (17:40) 0 0 0 0 0
05-01-2021 13.1 (14:40) 1.4 (00:00) 7.3 5.83 (17:20) 4.17 (17:10) 0 0 0 0 0
03-01-2021 12.7 (15:50) -3.1 (-00:0) 4.8 5.83 (15:40) 3.61 (17:20) 0 0 0 0 0
02-01-2021 12 (16:30) -1.4 (-00:0) 5.3 5.83 (16:20) 3.61 (00:10) 0 0 0 0 0
23-12-2020 20.1 (16:00) 8 (00:00) 14.1 7.22 (15:10) 5 (15:10) 0 0 0 0 0
29-12-2020 15.5 (14:30) 1.1 (00:00) 8.3 9.72 (15:10) 6.67 (15:40) 0 0 0 0 0
27-12-2020 14.6 (15:10) -1.2 (-00:0) 6.7 6.11 (14:20) 3.33 (03:40) 0 0 0 0 0
26-12-2020 14.4 (15:50) 2.7 (00:00) 8.5 9.72 (00:20) 7.78 (13:50) 0 0 0 0 0
25-12-2020 17.6 (14:30) 6.3 (00:00) 12 12.5 (20:00) 8.61 (20:10) 0 0 0 0 0
04-01-2021 13.1 (15:00) -2.5 (-00:0) 5.3 6.11 (15:20) 3.89 (14:40) 0.1 0 0 0 0.1
21-01-2021 18.4 (14:10) 6.7 (00:00) 12.5 12.5 (14:10) 8.89 (14:00) 0.7 0.2 0.5 0 0
09-01-2021 11.7 (15:00) 3.4 (00:00) 7.5 10.83 (13:40) 6.67 (13:40) 1.7 0 0 1.2 0.5
01-01-2021 13.7 (15:30) 5.1 (00:00) 9.4 10.28 (11:30) 7.22 (11:30) 3 3 0 0 0
06-01-2021 12.6 (14:40) 0.4 (00:00) 6.5 9.17 (23:50) 6.94 (23:59) 10.5 0 0 0 10.5
07-01-2021 9.2 (14:50) 6.9 (00:00) 8 12.78 (02:00) 8.33 (02:00) 24 0.9 3.6 3.3 16.2
08-01-2021 14.4 (15:50) 6.8 (00:00) 10.6 14.44 (13:30) 10.28 (13:40) 39 6.9 12.8 18 1.3
20-01-2021 14.4 (16:10) 10.3 (00:00) 12.3 12.78 (12:20) 9.72 (14:50) 44 0 17 26.9 0.1

Gráficas

Temp. máximas Temp. mínimas Temp. medias Precipitaciones Rachas de viento máximas Velocidades máximas media en intervalos de 10 minutos

Datos horarios

Fecha y hora oficial Temperatura (ºC) Velocidad del viento (km/h) Dirección del viento Racha (km/h) Dirección de racha Precipitación (mm) Presión (hPa) Tendencia (hPa) Humedad (%)
2021-01-21 23:00:00 14.8 22 Sur 33 Sur 0 1017.3 -- 92
2021-01-21 22:00:00 14.7 18 Sur 26 Sur 0 1018.1 -- 92
2021-01-21 21:00:00 14.5 14 Sur 22 Sur 0 1018.2 -- 92
2021-01-21 20:00:00 14.6 13 Sur 30 Sur 0 1017.9 -- 91
2021-01-21 19:00:00 14.8 21 Sur 37 Sudoeste 0 1018 -- 90
2021-01-21 18:00:00 15.5 23 Sudoeste 41 Sudoeste 0 1018 -- 85
2021-01-21 17:00:00 16.2 30 Sudoeste 45 Sudoeste 0 1017.7 -- 80
2021-01-21 16:00:00 16.9 32 Sudoeste 45 Sudoeste 0 1017.8 -- 79
2021-01-21 15:00:00 17.9 31 Sudoeste 45 Sudoeste 0 1017.9 -- 76
2021-01-21 14:00:00 17.8 32 Sudoeste 42 Sudoeste 0 1018.2 -- 75
2021-01-21 13:00:00 16.1 21 Sudoeste 35 Sudoeste 0 1019 -- 84
2021-01-21 12:00:00 15.3 18 Sudoeste 24 Sudoeste 0.2 1019.6 -- 94
2021-01-21 11:00:00 12.5 10 Sur 22 Sur 0 1019.2 -- 100
2021-01-21 10:00:00 9.9 0 Calma 5 Sudeste 0 1018.4 -- 100
2021-01-21 09:00:00 7.9 4 Este 8 Este 0 1017.7 -- 100
2021-01-21 08:00:00 7.7 4 Este 9 Sur 0 1017.4 -- 100
2021-01-21 07:00:00 8.8 3 Sudeste 8 Sur 0.3 1017 -- 100
2021-01-21 06:00:00 7 4 Sur 8 Sur 0.2 1016.9 -- 100
2021-01-21 05:00:00 7.7 2 Sur 5 Sudeste 0 1016.5 -- 100
2021-01-21 04:00:00 8.3 3 Sur 8 Sur 0 1016.3 -- 99
2021-01-21 03:00:00 8.8 4 Sur 9 Sur 0 1016.1 -- 99
2021-01-21 02:00:00 9.2 5 Sur 8 Sur 0 1015.8 -- 98
2021-01-21 01:00:00 10.2 5 Sur 9 Sur 0 1015.6 -- 98
2021-01-21 00:00:00 10.6 4 Sur 9 Sudoeste 0 1015.4 -- 94
2021-01-20 23:00:00 11 7 Sudoeste 17 Sudoeste 0 1014.8 -- 93
2021-01-20 22:00:00 12.2 13 Sudoeste 21 Sur 0 1014.2 -- 91
2021-01-20 21:00:00 12 13 Sudoeste 26 Sudoeste 0 1013.3 -- 89
2021-01-20 20:00:00 13.6 17 Sudoeste 24 Sudoeste 0 1012.6 -- 87
2021-01-20 19:00:00 13.3 21 Sudoeste 37 Oeste 0.1 1011.6 -- 86
2021-01-20 18:00:00 14.2 19 Sur 28 Sur 0 1011 -- 96
2021-01-20 17:00:00 14 18 Sur 28 Sur 0 1010.7 -- 95
2021-01-20 16:00:00 14.2 17 Sudoeste 26 Sudoeste 1.2 1010.4 -- 97
2021-01-20 15:00:00 14 22 Sudoeste 46 Sur 12 1010.5 -- 97
2021-01-20 14:00:00 12.2 5 Sudeste 39 Sur 11.1 1011 -- 99
2021-01-20 13:00:00 13.2 26 Sur 46 Sur 2.6 1012.5 -- 97
2021-01-20 12:00:00 13.1 30 Sur 41 Sur 10.6 1013.7 -- 96
2021-01-20 11:00:00 12.8 21 Sur 41 Sur 3.7 1013.7 -- 97
2021-01-20 10:00:00 12.7 23 Sur 37 Sur 1.2 1012.8 -- 94
2021-01-20 09:00:00 12.8 20 Sur 33 Sur 1.5 1013.3 -- 94
2021-01-20 08:00:00 13.3 23 Sur 35 Sur 0 1013.4 -- 88
2021-01-20 07:00:00 13.4 19 Sur 32 Sudeste 0 1013.7 -- 87
2021-01-20 06:00:00 12.9 17 Sur 26 Sur 0 1013.7 -- 85
2021-01-20 05:00:00 11.9 15 Sur 22 Sur 0 1014.5 -- 90
2021-01-20 04:00:00 11.2 10 Sudeste 17 Sudeste 0 1015.5 -- 87
2021-01-20 03:00:00 11 9 Sur 21 Sudeste 0 1016 -- 87
2021-01-20 02:00:00 10.8 8 Sur 21 Sudeste 0 1016.7 -- 86
2021-01-20 01:00:00 10.5 6 Sudeste 11 Sudeste 0 1017.6 -- 88
2021-01-20 00:00:00 10.7 4 Sur 13 Sur 0 1018.2 -- 87
2021-01-19 23:00:00 10.7 5 Sur 9 Sur 0 1018.3 -- 88
2021-01-19 22:00:00 10.9 6 Sur 13 Sur 0 1018.5 -- 87
2021-01-19 21:00:00 10.8 5 Sur 11 Sur 0 1018.9 -- 86
2021-01-19 20:00:00 10.6 8 Sur 13 Sudeste 0 1019.4 -- 87
2021-01-19 19:00:00 11.6 11 Sur 22 Sur 0 1019.8 -- 85
2021-01-19 18:00:00 14.9 17 Sudoeste 24 Sur 0 1019.4 -- 71
2021-01-19 17:00:00 16.7 12 Sudoeste 21 Sur 0 1019.3 -- 62
2021-01-19 16:00:00 17.2 14 Sur 21 Sur 0 1019.6 -- 57
2021-01-19 15:00:00 16.7 14 Sur 21 Sur 0 1020.4 -- 58
2021-01-19 14:00:00 15 13 Sur 22 Sudeste 0 1021.4 -- 68
2021-01-19 13:00:00 15 16 Sur 24 Sur 0 1022.5 -- 71
2021-01-19 12:00:00 13.3 12 Sudeste 21 Sudeste 0 1023.4 -- 78
2021-01-19 11:00:00 9 4 Nordeste 13 Este 0 1023.4 -- 91
2021-01-19 10:00:00 5.5 2 Este 8 Nordeste 0 1023.1 -- 100
2021-01-19 09:00:00 2.4 3 Este 13 Este 0 1023 -- 100
2021-01-19 08:00:00 2.6 9 Este 11 Este 0 1023 -- 100
2021-01-19 07:00:00 2.3 3 Este 9 Nordeste 0 1022.8 -- 100
2021-01-19 06:00:00 2.4 4 Este 11 Nordeste 0 1023 -- 100
2021-01-19 05:00:00 2.9 5 Este 8 Este 0 1023.3 -- 100
2021-01-19 04:00:00 2.7 5 Nordeste 13 Nordeste 0 1023.5 -- 100
2021-01-19 03:00:00 2.9 7 Nordeste 9 Nordeste 0 1023.6 -- 100
2021-01-19 02:00:00 3.7 5 Nordeste 9 Nordeste 0 1024.1 -- 100
2021-01-19 01:00:00 4.7 6 Este 9 Este 0 1024.1 -- 100
2021-01-19 00:00:00 4.4 6 Nordeste 9 Nordeste 0 1024.2 -- 99
2021-01-18 23:00:00 5.5 8 Nordeste 9 Nordeste 0 1024.1 -- 99
2021-01-18 22:00:00 5.8 6 Nordeste -- -- 0 1023.7 -- 98
2021-01-18 21:00:00 7.3 4 Nordeste 8 Este 0 1023.6 -- 98
2021-01-18 20:00:00 9 0 Calma -- -- 0 1023.3 -- 93
2021-01-18 19:00:00 11.7 8 Sudoeste 13 Sudoeste 0 1022.9 -- 85
2021-01-18 18:00:00 14.9 12 Sudoeste 17 Sudoeste 0 1022.6 -- 73
2021-01-18 17:00:00 16.4 11 Sur 18 Sudoeste 0 1022.3 -- 67
2021-01-18 16:00:00 16.2 12 Sudoeste 22 Sudoeste 0 1022.4 -- 71
2021-01-18 15:00:00 14.9 10 Oeste 15 Sudoeste 0 1022.5 -- 81
2021-01-18 14:00:00 12.6 7 Sudoeste 13 Sudoeste 0 1023.2 -- 93
2021-01-18 13:00:00 10.6 8 Sur 13 Sur 0 1024.1 -- 100
2021-01-18 12:00:00 8.8 0 Calma 4 Nordeste 0 1024.8 -- 100
2021-01-18 11:00:00 6.3 0 Calma 5 Norte 0 1024.6 -- 100
2021-01-18 10:00:00 3.2 4 Este 8 Este 0 1023.8 -- 97
2021-01-18 09:00:00 0.7 5 Nordeste 8 Nordeste 0 1023.4 -- 99
2021-01-18 08:00:00 1 7 Nordeste 9 Nordeste 0 1023.3 -- 99
2021-01-18 07:00:00 1.1 6 Nordeste 9 Nordeste 0 1022.8 -- 99
2021-01-18 06:00:00 1.5 7 Nordeste 9 Este 0 1022.7 -- 98
2021-01-18 05:00:00 2.3 8 Este 13 Nordeste 0 1023 -- 99
2021-01-18 04:00:00 1.3 6 Nordeste 11 Nordeste 0 1023.3 -- 99
2021-01-18 03:00:00 1.7 6 Este -- -- 0 1023.5 -- 98
2021-01-18 02:00:00 2.4 0 Calma 5 Sudeste 0 1023.5 -- 99
2021-01-18 01:00:00 2.9 4 Nordeste 5 Este 0 1023.9 -- 96
2021-01-18 00:00:00 3.9 5 Nordeste 9 Este 0 1024.1 -- 95
2021-01-17 23:00:00 4.4 6 Este 9 Nordeste 0 1023.9 -- 96
2021-01-17 22:00:00 4.7 2 Noroeste 11 Norte 0 1023.8 -- 95
2021-01-17 21:00:00 6.6 4 Norte 8 Norte 0 1023.5 -- 95
2021-01-17 20:00:00 8.7 0 Calma 11 Oeste 0 1023.5 -- 89
2021-01-17 19:00:00 10.8 9 Noroeste 13 Norte 0 1023.5 -- 76
2021-01-17 18:00:00 14.8 9 Norte 13 Norte 0 1023.4 -- 66
2021-01-17 17:00:00 16.6 7 Oeste 11 Oeste 0 1023.6 -- 58
2021-01-17 16:00:00 15.3 8 Norte 15 Norte 0 1023.6 -- 61
2021-01-17 15:00:00 13.9 9 Norte 18 Norte 0 1024 -- 64
2021-01-17 14:00:00 12.7 8 Noroeste 13 Noroeste 0 1024.7 -- 69
2021-01-17 13:00:00 10.9 5 Noroeste 13 Oeste 0 1026 -- 72
2021-01-17 12:00:00 9.1 4 Sudoeste 9 Sudoeste 0 1026.7 -- 78
2021-01-17 11:00:00 6.7 3 Sudoeste 5 Oeste 0 1026.4 -- 85
2021-01-17 10:00:00 3.1 0 Calma 8 Oeste 0 1025.8 -- 96
2021-01-17 09:00:00 -0.3 4 Noroeste 11 Norte 0 1025.4 -- 98
2021-01-17 08:00:00 0.2 6 Norte 9 Norte 0 1025.3 -- 97
2021-01-17 07:00:00 1.2 5 Norte 9 Nordeste 0 1024.9 -- 98
2021-01-17 06:00:00 0.8 4 Norte 8 Este 0 1024.6 -- 98
2021-01-17 05:00:00 0.7 4 Nordeste 8 Sur 0 1024.7 -- 98
2021-01-17 04:00:00 1.5 0 Calma 5 Norte 0 1025.2 -- 98
2021-01-17 03:00:00 1.9 4 Norte 8 Nordeste 0 1025.5 -- 97
2021-01-17 02:00:00 1.8 7 Nordeste 11 Nordeste 0 1025.8 -- 96
2021-01-17 01:00:00 2.2 5 Noroeste 9 Norte 0 1026.2 -- 94
2021-01-17 00:00:00 3.3 5 Nordeste 9 Este 0 1026.1 -- 95
2021-01-16 23:00:00 4.3 6 Este 13 Nordeste 0 1025.7 -- 93
2021-01-16 22:00:00 5.2 4 Nordeste 8 Este 0 1025.5 -- 90
2021-01-16 21:00:00 6.2 0 Calma 8 Norte 0 1025.2 -- 79
2021-01-16 20:00:00 9.2 0 Calma 13 Este 0 1024.7 -- 64
2021-01-16 19:00:00 11.5 0 Calma 18 Norte 0 1023.8 -- 55
2021-01-16 18:00:00 14.3 14 Norte 32 Norte 0 1023 -- 49
2021-01-16 17:00:00 16.2 22 Norte 45 Norte 0 1022.5 -- 43
2021-01-16 16:00:00 15.9 26 Norte 37 Norte 0 1022.5 -- 48
2021-01-16 15:00:00 15.5 19 Norte 33 Norte 0 1023.2 -- 50
2021-01-16 14:00:00 14.8 23 Norte 37 Norte 0 1023.7 -- 50
2021-01-16 13:00:00 12.7 26 Norte 37 Norte 0 1024.4 -- 58
2021-01-16 12:00:00 8.8 24 Norte 32 Norte 0 1025 -- 76
2021-01-16 11:00:00 5.4 19 Norte 24 Norte 0 1025.3 -- 90
2021-01-16 10:00:00 0.8 7 Oeste 13 Sudoeste 0 1024.9 -- 100
2021-01-16 09:00:00 -0.6 9 Oeste 15 Oeste 0 1024.1 -- 100
2021-01-16 08:00:00 -0.8 0 Calma 4 Oeste 0 1023.8 -- 100
2021-01-16 07:00:00 -0.1 3 Sur 8 Sudoeste 0 1023.4 -- 100
2021-01-16 06:00:00 -0.4 3 Noroeste 18 Este 0 1023.3 -- 100
2021-01-16 05:00:00 -0.2 0 Calma 8 Oeste 0 1023.4 -- 99
2021-01-16 04:00:00 0.3 0 Calma 8 Nordeste 0 1023.8 -- 100
2021-01-16 03:00:00 0.6 5 Norte 8 Norte 0 1023.9 -- 99
2021-01-16 02:00:00 1.2 4 Nordeste 5 Nordeste 0 1023.7 -- 100
2021-01-16 01:00:00 1.7 0 Calma 5 Norte 0 1024.2 -- 99
2021-01-16 00:00:00 2.5 3 Oeste 5 Oeste 0 1024.1 -- 99
2021-01-15 23:00:00 3 3 Norte 8 Nordeste 0 1024.2 -- 99
2021-01-15 22:00:00 4 0 Calma 4 Sudeste 0 1023.6 -- 97
2021-01-15 21:00:00 4.9 0 Calma 11 Oeste 0 1023.9 -- 95
2021-01-15 20:00:00 6.1 7 Noroeste 22 Oeste 0 1023.9 -- 92
2021-01-15 19:00:00 8.1 10 Oeste 18 Noroeste 0 1023.5 -- 84
2021-01-15 18:00:00 11.4 12 Noroeste 22 Noroeste 0 1023.3 -- 63
2021-01-15 17:00:00 12.9 17 Norte 22 Norte 0 1023.2 -- 56
2021-01-15 16:00:00 13.2 13 Noroeste 22 Noroeste 0 1023.2 -- 58
2021-01-15 15:00:00 12.6 12 Norte 21 Noroeste 0 1023.5 -- 60
2021-01-15 14:00:00 11.2 15 Norte 24 Norte 0 1024.3 -- 68
2021-01-15 13:00:00 6.5 6 Noroeste 9 Noroeste 0 1025.7 -- 96
2021-01-15 12:00:00 3.1 6 Noroeste 9 Noroeste 0 1026.4 -- 100
2021-01-15 11:00:00 0.6 3 Noroeste 8 Norte 0 1026.4 -- 100
2021-01-15 10:00:00 -0.8 0 Calma -- -- 0 1025.7 -- 100
2021-01-15 09:00:00 -1.1 0 Calma -- -- 0 1025.2 -- 100
2021-01-15 08:00:00 -0.7 0 Calma 4 Sudeste 0 1024.8 -- 100
2021-01-15 07:00:00 -0.6 0 Calma 8 Sudoeste 0 1024.3 -- 100
2021-01-15 06:00:00 -0.6 4 Sur 5 Sur 0 1024.1 -- 100
2021-01-15 05:00:00 -0.3 0 Calma -- -- 0 1024.4 -- 100
2021-01-15 04:00:00 0.3 0 Calma 8 Este 0 1024.4 -- 100
2021-01-15 03:00:00 1 6 Nordeste 9 Nordeste 0 1024.4 -- 100
2021-01-15 02:00:00 1.1 5 Nordeste 9 Este 0 1024.4 -- 100
2021-01-15 01:00:00 1.6 9 Nordeste 11 Nordeste 0 1024.7 -- 100
2021-01-15 00:00:00 1.6 6 Nordeste 8 Nordeste 0 1024.8 -- 99
2021-01-14 23:00:00 2.2 5 Nordeste 8 Nordeste 0 1024.7 -- 99
2021-01-14 22:00:00 3.1 2 Norte 5 Este 0 1024.6 -- 98
2021-01-14 21:00:00 4.2 4 Este 8 Sudeste 0 1024.5 -- 94
2021-01-14 20:00:00 5.7 5 Noroeste 15 Noroeste 0 1024.4 -- 92
2021-01-14 19:00:00 7.6 7 Oeste 18 Oeste 0 1024.2 -- 85
2021-01-14 18:00:00 10.2 11 Oeste 15 Oeste 0 1024 -- 74
2021-01-14 17:00:00 11.9 11 Oeste 17 Oeste 0 1023.8 -- 64
2021-01-14 16:00:00 12.9 14 Oeste 24 Sudoeste 0 1023.6 -- 60
2021-01-14 15:00:00 11.8 12 Oeste 21 Sudoeste 0 1024.1 -- 66
2021-01-14 14:00:00 10 6 Sudoeste 17 Oeste 0 1025 -- 75
2021-01-14 13:00:00 8.9 8 Oeste 17 Oeste 0 1026 -- 78
2021-01-14 12:00:00 7.6 5 Sudoeste 9 Sudoeste 0 1026.4 -- 81
2021-01-14 11:00:00 5.2 3 Sudoeste 8 Sudoeste 0 1026.2 -- 90
2021-01-14 10:00:00 1.3 3 Este 5 Norte 0 1025.8 -- 99
2021-01-14 09:00:00 -1.6 2 Este 5 Nordeste 0 1025.6 -- 99
2021-01-14 08:00:00 -1.3 4 Norte 8 Este 0 1025.6 -- 99
2021-01-14 07:00:00 -0.6 3 Nordeste 5 Este 0 1025.4 -- 99
2021-01-14 06:00:00 -0.7 4 Nordeste 8 Este 0 1025.4 -- 99
2021-01-14 05:00:00 0 0 Calma -- -- 0 1025.9 -- 99
2021-01-14 04:00:00 0.1 4 Nordeste 5 Nordeste 0 1026.2 -- 98
2021-01-14 03:00:00 0.6 5 Este 8 Este 0 1026.3 -- 98
2021-01-14 02:00:00 0.7 5 Nordeste 9 Este 0 1026.5 -- 96
2021-01-14 01:00:00 1.1 4 Nordeste 9 Nordeste 0 1027 -- 95
2021-01-14 00:00:00 1.8 5 Nordeste 11 Este 0 1027.4 -- 95
2021-01-13 23:00:00 2 4 Este 5 Este 0 1027.3 -- 95
2021-01-13 22:00:00 3 -- -- -- -- 0 1027 -- 95
2021-01-13 21:00:00 4.5 0 Calma 11 Oeste 0 1027 -- 87
2021-01-13 20:00:00 5.5 9 Noroeste 24 Noroeste 0 1026.5 -- 82
2021-01-13 19:00:00 8.2 8 Oeste 15 Oeste 0 1026.3 -- 70
2021-01-13 18:00:00 11.1 8 Noroeste 18 Norte 0 1026 -- 61
2021-01-13 17:00:00 12.3 14 Norte 24 Norte 0 1025.9 -- 56
2021-01-13 16:00:00 12.4 15 Norte 26 Norte 0 1025.9 -- 55
2021-01-13 15:00:00 12.3 17 Norte 28 Norte 0 1026 -- 56
2021-01-13 14:00:00 11.1 20 Norte 26 Norte 0 1026.5 -- 62
2021-01-13 13:00:00 9.5 16 Norte 21 Norte 0 1027.3 -- 71
2021-01-13 12:00:00 6.7 9 Norte 15 Norte 0 1028.1 -- 81
2021-01-13 11:00:00 4.1 9 Norte 11 Norte 0 1028.1 -- 87
2021-01-13 10:00:00 0.9 5 Norte 9 Norte 0 1027.6 -- 95
2021-01-13 09:00:00 -2 5 Norte 9 Norte 0 1027.3 -- 98
2021-01-13 08:00:00 -1.8 0 Calma 8 Norte 0 1026.9 -- 98
2021-01-13 07:00:00 -1.4 6 Norte 9 Norte 0 1026.3 -- 98
2021-01-13 06:00:00 -1.1 5 Noroeste -- -- 0 1026 -- 99
2021-01-13 05:00:00 -0.6 0 Calma 8 Sur 0 1026.1 -- 98
2021-01-13 04:00:00 -0.2 6 Sur 8 Sur 0 1026.2 -- 98
2021-01-13 03:00:00 0.2 0 Calma 11 Norte 0 1026.4 -- 94
2021-01-13 02:00:00 1.2 3 Noroeste 5 Oeste 0 1026.5 -- 95
2021-01-13 01:00:00 1.9 4 Nordeste 13 Norte 0 1026.9 -- 93
2021-01-13 00:00:00 3.1 8 Norte 9 Norte 0 1027.2 -- 92
2021-01-12 23:00:00 3.3 5 Norte 9 Noroeste 0 1027.1 -- 92
2021-01-12 22:00:00 2.7 11 Norte 13 Norte 0 1026.9 -- 93
2021-01-12 21:00:00 4.4 7 Norte 8 Norte 0 1026.7 -- 91
2021-01-12 20:00:00 6 8 Norte 11 Norte 0 1026.4 -- 87
2021-01-12 19:00:00 6.2 11 Norte 13 Norte 0 1026 -- 80
2021-01-12 18:00:00 9.8 11 Norte 18 Norte 0 1025.9 -- 66
2021-01-12 17:00:00 11.6 15 Norte 21 Norte 0 1025.8 -- 57
2021-01-12 16:00:00 12.1 13 Norte 18 Norte 0 1025.7 -- 58
2021-01-12 15:00:00 11.9 15 Norte 22 Norte 0 1025.8 -- 63
2021-01-12 14:00:00 11.1 16 Norte 22 Norte 0 1026.2 -- 73
2021-01-12 13:00:00 9.7 8 Norte 13 Noroeste 0 1026.9 -- 79
2021-01-12 12:00:00 7.3 8 Noroeste 13 Norte 0 1027.6 -- 87
2021-01-12 11:00:00 4.6 2 Noroeste 5 Noroeste 0 1027.3 -- 92
2021-01-12 10:00:00 1.4 4 Norte 5 Norte 0 1026.4 -- 97
2021-01-12 09:00:00 -0.3 6 Norte -- -- 0 1025.8 -- 98
2021-01-12 08:00:00 -1.1 7 Norte 13 Norte 0 1025.2 -- 99
2021-01-12 07:00:00 -0.3 5 Nordeste -- -- 0 1024.5 -- 99
2021-01-12 06:00:00 -0.4 -- -- -- -- 0 1024.4 -- 99
2021-01-12 05:00:00 0.2 5 Nordeste -- -- 0 1024.4 -- 99
2021-01-12 04:00:00 0 7 Norte 11 Norte 0 1024.4 -- 99
2021-01-12 03:00:00 0.7 4 Nordeste -- -- 0 1023.9 -- 99
2021-01-12 02:00:00 0.8 0 Calma 5 Norte 0 1023.5 -- 99
2021-01-12 01:00:00 1.5 2 Nordeste 4 Este 0 1023.5 -- 99
2021-01-12 00:00:00 2 3 Este 8 Nordeste 0 1023.3 -- 98
2021-01-11 23:00:00 2.9 4 Este 5 Este 0 1022.7 -- 97
2021-01-11 22:00:00 3.8 4 Oeste 8 Oeste 0 1021.9 -- 96
2021-01-11 21:00:00 4.4 5 Este 8 Nordeste 0 1021.1 -- 96
2021-01-11 20:00:00 5.5 0 Calma 5 Este 0 1020.3 -- 88
2021-01-11 19:00:00 7.6 4 Este 15 Norte 0 1019.6 -- 83
2021-01-11 18:00:00 9.5 12 Norte 21 Norte 0 1019.2 -- 70
2021-01-11 17:00:00 10.6 15 Norte 24 Norte 0 1018.6 -- 68
2021-01-11 16:00:00 10.8 16 Norte 26 Norte 0 1017.9 -- 70
2021-01-11 15:00:00 10.7 13 Norte 22 Norte 0 1017.5 -- 69
2021-01-11 14:00:00 10.3 15 Norte 24 Norte 0 1017.3 -- 72
2021-01-11 13:00:00 9.3 18 Norte 24 Norte 0 1017.6 -- 76
2021-01-11 12:00:00 8.2 6 Nordeste 26 Norte 0 1017.8 -- 81
2021-01-11 11:00:00 5.7 15 Norte 22 Norte 0 1017.3 -- 89
2021-01-11 10:00:00 3.4 9 Norte 17 Norte 0 1016.2 -- 97
2021-01-11 09:00:00 0.1 7 Noroeste 11 Norte 0 1015.2 -- 99
2021-01-11 08:00:00 0.5 8 Noroeste 13 Noroeste 0 1014.5 -- 100
2021-01-11 07:00:00 0.7 6 Sudeste 13 Sudeste 0 1013.7 -- 100
2021-01-11 06:00:00 1.5 5 Norte 11 Noroeste 0 1013.2 -- 100
2021-01-11 05:00:00 1.3 10 Norte 17 Norte 0 1013 -- 99
2021-01-11 04:00:00 1.6 3 Nordeste 9 Noroeste 0 1013 -- 99
2021-01-11 03:00:00 2 3 Nordeste 5 Nordeste 0 1012.2 -- 99
2021-01-11 02:00:00 2.2 2 Este 9 Noroeste 0 1011.9 -- 98
2021-01-11 01:00:00 2.5 7 Noroeste 9 Noroeste 0 1011.8 -- 98
2021-01-11 00:00:00 3.7 6 Este 9 Este 0 1011.7 -- 97
2021-01-10 23:00:00 4.2 2 Noroeste 8 Sudoeste 0 1011 -- 96
2021-01-10 22:00:00 4.5 4 Sur 15 Norte 0 1010.8 -- 93
2021-01-10 21:00:00 4.8 8 Norte 18 Norte 0 1010.5 -- 92
2021-01-10 20:00:00 5.5 11 Noroeste 13 Noroeste 0 1009.7 -- 92
2021-01-10 19:00:00 6.6 8 Noroeste 11 Norte 0 1009 -- 87
2021-01-10 18:00:00 7.3 9 Norte 15 Norte 0 1008.5 -- 78
2021-01-10 17:00:00 7.7 10 Norte 13 Norte 0 1008 -- 75
2021-01-10 16:00:00 8.1 4 Sudeste 11 Este 0 1007.4 -- 69
2021-01-10 15:00:00 8 2 Este 11 Noroeste 0 1007.1 -- 73
2021-01-10 14:00:00 7.4 8 Nordeste 13 Nordeste 0 1007 -- 77
2021-01-10 13:00:00 6.7 3 Este 11 Sudeste 0 1007.5 -- 76
2021-01-10 12:00:00 6.3 5 Este 13 Este 0 1007.8 -- 83
2021-01-10 11:00:00 5.2 9 Nordeste 13 Nordeste 0 1007.2 -- 90
2021-01-10 10:00:00 3.6 0 Calma 8 Noroeste 0 1006.4 -- 94
2021-01-10 09:00:00 3.4 4 Noroeste 8 Noroeste 0 1005.5 -- 96
2021-01-10 08:00:00 3.3 4 Noroeste 15 Norte 0 1004.6 -- 95
2021-01-10 07:00:00 3.2 10 Norte 17 Norte 0 1004 -- 94
2021-01-10 06:00:00 3.3 10 Norte 13 Norte 0 1003.4 -- 92
2021-01-10 05:00:00 3.3 7 Norte 9 Norte 0 1003.4 -- 94
2021-01-10 04:00:00 3.3 5 Nordeste 9 Noroeste 0 1003.6 -- 94
2021-01-10 03:00:00 3.5 7 Norte 11 Noroeste 0 1003.4 -- 93
2021-01-10 02:00:00 3.2 3 Sur 5 Sur 0 1003.1 -- 93
2021-01-10 01:00:00 4.2 6 Sur 8 Sur 0 1003.2 -- 91
2021-01-10 00:00:00 4.2 4 Noroeste 13 Noroeste 0 1003.3 -- 87
2021-01-09 23:00:00 4 11 Noroeste 21 Oeste 0 1002.9 -- 88
2021-01-09 22:00:00 4.8 13 Noroeste 21 Oeste 0 1002.6 -- 98
2021-01-09 21:00:00 5.8 5 Este 13 Este 0 1001.9 -- 95
2021-01-09 20:00:00 6.6 7 Este 13 Este 0 1001.7 -- 94
2021-01-09 19:00:00 7 6 Sudeste 9 Sudeste 0.5 1001.7 -- 94
2021-01-09 18:00:00 7.6 8 Sur 22 Sur 1.2 1001.6 -- 93
2021-01-09 17:00:00 8.8 12 Sur 24 Sudoeste 0 1001.3 -- 80
2021-01-09 16:00:00 10.1 14 Oeste 32 Sudoeste 0 1001.2 -- 65
2021-01-09 15:00:00 11.4 20 Sudoeste 37 Sudoeste 0 1001.4 -- 56
2021-01-09 14:00:00 11.3 21 Oeste 39 Sudoeste 0 1001.9 -- 54
2021-01-09 13:00:00 10.6 12 Oeste 28 Oeste 0 1002.7 -- 68
2021-01-09 12:00:00 9.7 6 Sudoeste 11 Sudoeste 0 1003.8 -- 71
2021-01-09 11:00:00 8.4 2 Sudeste 8 Este 0 1004 -- 77
2021-01-09 10:00:00 5.4 4 Nordeste 8 Norte 0 1003.4 -- 91
2021-01-09 09:00:00 3.5 5 Sur 15 Sudoeste 0 1002.9 -- 92
2021-01-09 08:00:00 5 9 Oeste 22 Oeste 0 1002.4 -- 83
2021-01-09 07:00:00 5.5 12 Oeste 22 Oeste 0 1001.9 -- 84
2021-01-09 06:00:00 6.4 13 Oeste 28 Oeste 0 1001.3 -- 83
2021-01-09 05:00:00 6.1 7 Oeste 24 Oeste 0 1000.9 -- 90
2021-01-09 04:00:00 6.8 16 Oeste 28 Oeste 0 1000.9 -- 87
2021-01-09 03:00:00 7.3 16 Oeste 26 Oeste 0 1000.6 -- 89
2021-01-09 02:00:00 7.8 15 Sudoeste 22 Oeste 0 999.8 -- 94
2021-01-09 01:00:00 7.8 13 Sudoeste 18 Sudoeste 0 999.7 -- 95
2021-01-09 00:00:00 7.9 10 Sudoeste 22 Oeste 0 999.6 -- 97
2021-01-08 23:00:00 8.2 12 Oeste 18 Oeste 0.1 998.9 -- 99
2021-01-08 22:00:00 7.8 11 Oeste 30 Noroeste 0 997.6 -- 99
2021-01-08 21:00:00 8.4 18 Noroeste 26 Noroeste 0.7 996.2 -- 99
2021-01-08 20:00:00 8.9 15 Oeste 22 Oeste 0 995 -- 100
2021-01-08 19:00:00 9.8 17 Oeste 28 Sur 0.5 993.7 -- 99
2021-01-08 18:00:00 13.6 24 Sur 33 Sur 8.6 993.5 -- 99
2021-01-08 17:00:00 13.6 17 Sudeste 42 Sudeste 3.3 992.6 -- 98
2021-01-08 16:00:00 14.2 26 Sudeste 42 Sudeste 0.2 993.4 -- 95
2021-01-08 15:00:00 13.6 22 Sudeste 45 Sudeste 1.1 993.5 -- 96
2021-01-08 14:00:00 13 31 Sudeste 52 Sudeste 0.2 994.4 -- 94
2021-01-08 13:00:00 11.1 24 Este 42 Este 4.6 995.6 -- 100
2021-01-08 12:00:00 8.7 15 Nordeste 26 Norte 3.2 997.9 -- 100
2021-01-08 11:00:00 7.2 19 Norte 35 Norte 1 998.7 -- 100
2021-01-08 10:00:00 6.9 24 Norte 39 Norte 1.6 998.8 -- 100
2021-01-08 09:00:00 6.8 29 Norte 42 Norte 3.3 998.5 -- 100
2021-01-08 08:00:00 6.9 27 Norte 37 Norte 2.3 998.6 -- 99
2021-01-08 07:00:00 7.2 23 Norte 32 Norte 1.4 998.4 -- 99
2021-01-08 06:00:00 7.2 23 Norte 33 Norte 2 999 -- 99
2021-01-08 05:00:00 7.1 19 Norte 28 Norte 1.3 999.8 -- 98
2021-01-08 04:00:00 7 18 Norte 30 Norte 0.3 1000.5 -- 98
2021-01-08 03:00:00 7 22 Norte 30 Norte 0 1000.7 -- 99
2021-01-08 02:00:00 7.1 19 Norte 28 Norte 1.5 1001.8 -- 99
2021-01-08 01:00:00 7.1 17 Norte 28 Norte 1.8 1002.4 -- 99
2021-01-08 00:00:00 7.3 19 Norte 28 Norte 1.8 1003.1 -- 99
2021-01-07 23:00:00 7.3 20 Norte 32 Norte 2.6 1003.4 -- 100
2021-01-07 22:00:00 7.7 18 Norte 28 Norte 4.6 1003.3 -- 99
2021-01-07 21:00:00 7.8 20 Norte 32 Norte 4 1003.5 -- 99
2021-01-07 20:00:00 7.7 18 Norte 35 Norte 2.3 1003.6 -- 99
2021-01-07 19:00:00 8.3 22 Norte 32 Norte 0.9 1003.4 -- 97
2021-01-07 18:00:00 8.7 17 Norte 24 Norte 0.4 1004.1 -- 97
2021-01-07 17:00:00 9.1 10 Norte 24 Nordeste 0 1004 -- 96
2021-01-07 16:00:00 9.1 15 Nordeste 26 Nordeste 0 1003.8 -- 96
2021-01-07 15:00:00 9 16 Norte 22 Norte 0.4 1003.7 -- 97
2021-01-07 14:00:00 8.6 12 Norte 26 Norte 1.2 1004.2 -- 98
2021-01-07 13:00:00 8 19 Norte 35 Norte 1.3 1004.4 -- 99
2021-01-07 12:00:00 7.6 23 Norte 32 Norte 1.3 1005 -- 98
2021-01-07 11:00:00 7.5 16 Norte 22 Norte 0.6 1005 -- 98
2021-01-07 10:00:00 7.3 16 Norte 30 Norte 0.6 1004.2 -- 97
2021-01-07 09:00:00 7 20 Norte 35 Norte 0.2 1003.5 -- 97
2021-01-07 08:00:00 7.1 24 Norte 39 Norte 0.8 1002.7 -- 98
2021-01-07 07:00:00 7.5 24 Norte 35 Norte 0.1 1001.9 -- 96
2021-01-07 06:00:00 8 24 Norte 37 Nordeste 0.2 1001 -- 94
2021-01-07 05:00:00 7.8 25 Norte 35 Norte 0.4 1001.4 -- 96
2021-01-07 04:00:00 8 24 Norte 33 Norte 0 1001.6 -- 95
2021-01-07 03:00:00 8.5 25 Nordeste 42 Nordeste 0 1001.3 -- 90
2021-01-07 02:00:00 8.6 30 Nordeste 46 Nordeste 0 1001.5 -- 91
2021-01-07 01:00:00 8.3 22 Norte 35 Norte 0.3 1001.6 -- 96
2021-01-07 00:00:00 8.2 25 Norte 33 Norte 3.6 1002 -- 98
2021-01-06 23:00:00 8.7 17 Nordeste 30 Nordeste 2 1003.1 -- 95
2021-01-06 22:00:00 8.9 17 Norte 24 Norte 1.9 1003.5 -- 97
2021-01-06 21:00:00 9.2 9 Nordeste 18 Este 1.5 1004.2 -- 96
2021-01-06 20:00:00 9.8 13 Este 26 Este 1.1 1004.4 -- 93
2021-01-06 19:00:00 10.3 8 Este 15 Nordeste 0.4 1004.1 -- 89
2021-01-06 18:00:00 11.3 10 Nordeste 18 Nordeste 0 1004.4 -- 78
2021-01-06 17:00:00 12.1 15 Norte 22 Norte 0 1004.8 -- 70
2021-01-06 16:00:00 12.3 15 Norte 26 Norte 0 1004.5 -- 68
2021-01-06 15:00:00 12.2 18 Norte 28 Norte 0 1004.5 -- 69
2021-01-06 14:00:00 11.8 19 Norte 26 Norte 0 1005.3 -- 73
2021-01-06 13:00:00 11.4 9 Norte 13 Noroeste 0 1006.6 -- 75
2021-01-06 12:00:00 8.9 7 Noroeste 11 Noroeste 0 1007.9 -- 84
2021-01-06 11:00:00 5.5 0 Calma 8 Norte 0 1008.2 -- 91
2021-01-06 10:00:00 3.2 2 Norte 5 Norte 0 1008 -- 95
2021-01-06 09:00:00 2 2 Este 9 Noroeste 0 1007.2 -- 96
2021-01-06 08:00:00 1.5 8 Norte -- -- 0 1007 -- 97
2021-01-06 07:00:00 0.8 5 Este -- -- 0 1006.9 -- 96
2021-01-06 06:00:00 0.6 4 Norte 9 Norte 0 1006.7 -- 96
2021-01-06 05:00:00 0.9 4 Noroeste 5 Noroeste 0 1006.7 -- 95
2021-01-06 04:00:00 1.3 2 Norte 9 Norte 0 1006.9 -- 92
2021-01-06 03:00:00 2.1 8 Norte 13 Norte 0 1006.5 -- 91
2021-01-06 02:00:00 2.7 5 Norte 13 Nordeste 0 1005.9 -- 90
2021-01-06 01:00:00 3.7 6 Norte 15 Norte 0 1006.1 -- 88
2021-01-06 00:00:00 4.8 8 Norte 15 Norte 0 1006.3 -- 85
2021-01-05 23:00:00 5.5 3 Norte 11 Norte 0 1006.1 -- 85
2021-01-05 22:00:00 7 8 Norte 15 Norte 0 1005.9 -- 81
2021-01-05 21:00:00 8.1 11 Norte 15 Norte 0 1005.9 -- 82
2021-01-05 20:00:00 8.8 12 Norte 15 Norte 0 1005.7 -- 79
2021-01-05 19:00:00 9.9 12 Norte 17 Norte 0 1005.8 -- 75
2021-01-05 18:00:00 11 10 Norte 21 Norte 0 1005.4 -- 70
2021-01-05 17:00:00 12 13 Norte 18 Norte 0 1005.3 -- 69
2021-01-05 16:00:00 12.8 14 Norte 18 Norte 0 1005.6 -- 66
2021-01-05 15:00:00 12.7 11 Norte 17 Noroeste 0 1006 -- 67
2021-01-05 14:00:00 12.7 6 Nordeste 13 Este 0 1006.4 -- 67
2021-01-05 13:00:00 11.9 6 Este 18 Este 0 1007.8 -- 71
2021-01-05 12:00:00 11.1 10 Este 15 Nordeste 0 1008.6 -- 75
2021-01-05 11:00:00 8 5 Este 9 Este 0 1009.1 -- 86
2021-01-05 10:00:00 5.1 6 Este 11 Norte 0 1009.3 -- 94
2021-01-05 09:00:00 1.7 8 Norte 13 Norte 0 1009 -- 97
2021-01-05 08:00:00 2.4 6 Nordeste 9 Nordeste 0 1008.6 -- 97
2021-01-05 07:00:00 2.2 4 Nordeste 8 Norte 0 1008.2 -- 96
2021-01-05 06:00:00 2.6 0 Calma 9 Norte 0 1008.2 -- 97
2021-01-05 05:00:00 4 3 Este 15 Norte 0 1008.7 -- 94
2021-01-05 04:00:00 4.1 8 Nordeste 17 Norte 0 1008.9 -- 93
2021-01-05 03:00:00 4.8 3 Nordeste 9 Nordeste 0 1009.1 -- 93
2021-01-05 02:00:00 5.2 6 Nordeste 9 Nordeste 0 1009.1 -- 92
2021-01-05 01:00:00 5.3 8 Este 11 Este 0 1009.7 -- 91
2021-01-05 00:00:00 5.7 3 Nordeste 9 Este 0.1 1009.9 -- 93
2021-01-04 23:00:00 5 0 Calma 9 Nordeste 0 1010.6 -- 91
2021-01-04 22:00:00 3.9 5 Nordeste 9 Nordeste 0 1010.4 -- 88
2021-01-04 21:00:00 4.8 5 Este 9 Este 0 1010.6 -- 82
2021-01-04 20:00:00 6.6 5 Sudoeste 13 Oeste 0 1011.2 -- 79
2021-01-04 19:00:00 8.8 10 Oeste 13 Oeste 0 1010.9 -- 67
2021-01-04 18:00:00 11.3 5 Oeste 15 Oeste 0 1010.8 -- 58
2021-01-04 17:00:00 11.5 6 Oeste 21 Oeste 0 1010.5 -- 56
2021-01-04 16:00:00 12.9 13 Noroeste 22 Oeste 0 1010.4 -- 51
2021-01-04 15:00:00 12.9 12 Oeste 21 Noroeste 0 1010.9 -- 55
2021-01-04 14:00:00 12.1 9 Oeste 17 Oeste 0 1011.8 -- 58
2021-01-04 13:00:00 11.4 4 Noroeste 11 Sudoeste 0 1012.9 -- 62
2021-01-04 12:00:00 9.3 3 Oeste 8 Sur 0 1013.7 -- 72
2021-01-04 11:00:00 5.2 3 Nordeste 5 Nordeste 0 1014.1 -- 86
2021-01-04 10:00:00 0.8 0 Calma 5 Este 0 1014.4 -- 94
2021-01-04 09:00:00 -1.9 0 Calma 8 Nordeste 0 1014 -- 98
2021-01-04 08:00:00 -2.1 5 Este 8 Este 0 1013.5 -- 97
2021-01-04 07:00:00 -1.6 0 Calma 8 Nordeste 0 1013.4 -- 98
2021-01-04 06:00:00 -1.9 6 Nordeste 9 Nordeste 0 1013.3 -- 97
2021-01-04 05:00:00 -1 0 Calma 8 Nordeste 0 1013.9 -- 97
2021-01-04 04:00:00 -1.1 4 Nordeste 8 Norte 0 1014.3 -- 96
2021-01-04 03:00:00 -1 2 Este 9 Nordeste 0 1014.5 -- 97
2021-01-04 02:00:00 -0.3 3 Este 8 Este 0 1014.5 -- 95
2021-01-04 01:00:00 -0.1 7 Nordeste 11 Norte 0 1014.9 -- 94
2021-01-04 00:00:00 0.7 4 Nordeste 9 Nordeste 0 1015.3 -- 94
2021-01-03 23:00:00 1 6 Nordeste 9 Nordeste 0 1015.5 -- 94
2021-01-03 22:00:00 1.6 8 Este 9 Este 0 1015.6 -- 90
2021-01-03 21:00:00 3 4 Nordeste 5 Nordeste 0 1015.5 -- 91
2021-01-03 20:00:00 5.7 4 Sudeste 11 Sudoeste 0 1015.7 -- 81
2021-01-03 19:00:00 7.4 9 Sudoeste 13 Oeste 0 1015.7 -- 70
2021-01-03 18:00:00 10.4 9 Oeste 18 Oeste 0 1015.5 -- 51
2021-01-03 17:00:00 12 12 Oeste 18 Oeste 0 1015.4 -- 45
2021-01-03 16:00:00 12.7 10 Oeste 21 Oeste 0 1015.3 -- 42
2021-01-03 15:00:00 12 11 Oeste 17 Oeste 0 1015.5 -- 42
2021-01-03 14:00:00 11.2 7 Noroeste 15 Oeste 0 1016.2 -- 51
2021-01-03 13:00:00 10 3 Oeste 8 Noroeste 0 1017.2 -- 62
2021-01-03 12:00:00 7.9 2 Nordeste 8 Este 0 1017.5 -- 71
2021-01-03 11:00:00 4.7 3 Este 8 Este 0 1017.6 -- 83
2021-01-03 10:00:00 0.3 5 Norte 8 Nordeste 0 1017.2 -- 94
2021-01-03 09:00:00 -- 8 Nordeste 9 Nordeste 0 1016.7 -- --
2021-01-03 08:00:00 -2.4 0 Calma 8 Nordeste 0 1016.7 -- 96
2021-01-03 07:00:00 -2.5 6 Nordeste 9 Nordeste 0 1016.3 -- 97
2021-01-03 06:00:00 -2.4 4 Nordeste 11 Nordeste 0 1016.1 -- 96
2021-01-03 05:00:00 -1.7 0 Calma 9 Nordeste 0 1016.1 -- 98
2021-01-03 04:00:00 -1.2 2 Nordeste 5 Nordeste 0 1016.6 -- 98
2021-01-03 03:00:00 -1.2 0 Calma -- -- 0 1016.3 -- 97
2021-01-03 02:00:00 -0.4 5 Nordeste 8 Nordeste 0 1016.1 -- 96
2021-01-03 01:00:00 0.3 0 Calma 5 Nordeste 0 1016.1 -- 96
2021-01-03 00:00:00 1.5 4 Noroeste 11 Noroeste 0 1016.4 -- 92
2021-01-02 23:00:00 2.7 10 Noroeste 13 Norte 0 1015.9 -- 87
2021-01-02 22:00:00 3.9 10 Nordeste 15 Nordeste 0 1015.5 -- 82
2021-01-02 21:00:00 5.2 9 Oeste 13 Oeste 0 1015 -- 78
2021-01-02 20:00:00 6.3 7 Oeste 13 Oeste 0 1014.5 -- 77
2021-01-02 19:00:00 8.2 10 Oeste 17 Oeste 0 1014.5 -- 72
2021-01-02 18:00:00 10.4 8 Sudoeste 18 Oeste 0 1014.2 -- 64
2021-01-02 17:00:00 11.3 13 Oeste 21 Oeste 0 1013.9 -- 56
2021-01-02 16:00:00 11.8 6 Oeste 17 Noroeste 0 1013.8 -- 53
2021-01-02 15:00:00 11 8 Noroeste 17 Noroeste 0 1013.8 -- 55
2021-01-02 14:00:00 10.1 9 Norte 18 Noroeste 0 1014.4 -- 65